This is the latest recevied weather packets stored in our database for station/object EA2KR-10. If no packets are shown the sender has not sent any weather packets the latest 10 day(s).
| Time | Temp. | Humidity | Pressure | Rain* | Wind** | Luminosity | Snow |
|---|---|---|---|---|---|---|---|
| 1777603536 | 15.56° C | 66% | 1029.6 hPa | - | - | - | - |
| 1777601736 | 16.11° C | 65% | 1029.6 hPa | - | - | - | - |
| 1777599936 | 15.56° C | 66% | 1029.7 hPa | - | - | - | - |
| 1777598136 | 15.56° C | 67% | 1029.3 hPa | - | - | - | - |
| 1777596335 | 16.11° C | 66% | 1029.2 hPa | - | - | - | - |
| 1777594535 | 15.56° C | 67% | 1029.5 hPa | - | - | - | - |
| 1777592735 | 16.11° C | 67% | 1029.3 hPa | - | - | - | - |
| 1777590939 | 16.11° C | 67% | 1029.4 hPa | - | - | - | - |
| 1777589138 | 15.56° C | 68% | 1029.4 hPa | - | - | - | - |
| 1777587338 | 16.11° C | 67% | 1029.2 hPa | - | - | - | - |
| 1777585538 | 16.67° C | 66% | 1029.2 hPa | - | - | - | - |
| 1777583738 | 16.67° C | 64% | 1029.1 hPa | - | - | - | - |
| 1777581938 | 16.67° C | 65% | 1028.8 hPa | - | - | - | - |
| 1777580138 | 16.67° C | 65% | 1028.8 hPa | - | - | - | - |
| 1777578338 | 17.22° C | 64% | 1028.5 hPa | - | - | - | - |
| 1777576538 | 17.22° C | 63% | 1027.9 hPa | - | - | - | - |
| 1777574738 | 17.78° C | 61% | 1027.8 hPa | - | - | - | - |
| 1777572938 | 18.89° C | 57% | 1027.6 hPa | - | - | - | - |
| 1777571138 | 21.67° C | 51% | 1027.2 hPa | - | - | - | - |
| 1777569338 | 20° C | 55% | 1027.4 hPa | - | - | - | - |
| 1777567537 | 20.56° C | 53% | 1027.5 hPa | - | - | - | - |
| 1777565737 | 22.22° C | 53% | 1027.2 hPa | - | - | - | - |
| 1777563937 | 23.33° C | 52% | 1027 hPa | - | - | - | - |
| 1777562137 | 21.11° C | 53% | 1027.1 hPa | - | - | - | - |
| 1777560337 | 25.56° C | 51% | 1027.1 hPa | - | - | - | - |
* Rain since midnight (hover to see other rain measurements)
** Current wind speed in m/s (hover to see current wind gust speed)